Sainte-Rose, Canada
Current Conditions -  °F | °C
As of 3:35 AM on Thursday 18 Dec 2014 (Local Time) from CYUL Reporting Station
Light Snow Light Snow  
Wind Chill: 27°   Ceiling: 1400
Heat Index: 32°   Visibility: 2.2mi
Dew Point: 30°   Wind: 5mph
Humidity: 93%   Direction: 280°W
Pressure: 29.79"   Gusts: NA
Location:  45.62°N, 73.78°W
Report Text: CYUL 180835Z 28004KT 2 1/4SM -SN BR FEW006 OVC014 M00/M01 A2979 RMK SF2SF6 SLP089
Loading
Personal Weather Stations






























Interactive Weather Map New forecast layout! Learn more

10-Day Weather Forecast

Advertisements
Track Severe Weather on mobile